Time;durP1;ratioP1;P1;durP2;ratioP2;P2;SDS_P1;SDS_P2;PMS_P1;PMS_P2;Temp;Humidity;BMP_temperature;BMP_pressure;BME280_temperature;BME280_humidity;BME280_pressure;Samples;Min_cycle;Max_cycle;Signal;HPM_P1;HPM_P2
2022/08/10 00:01:33;;;;;;;5.50;2.00;;;;;;;;;;5065915;28;20365;-70
2022/08/10 00:03:58;;;;;;;5.22;2.05;;;;;;;;;;5067164;28;20017;-69
2022/08/10 00:06:23;;;;;;;4.73;2.20;;;;;;;;;;5065252;28;20032;-70
2022/08/10 00:08:48;;;;;;;5.03;1.77;;;;;;;;;;5063076;28;20400;-69
2022/08/10 00:11:13;;;;;;;9.27;2.47;;;;;;;;;;5067979;28;20308;-68
2022/08/10 00:13:38;;;;;;;7.03;2.10;;;;;;;;;;5066949;28;20062;-68
2022/08/10 00:16:04;;;;;;;3.27;2.10;;;;;;;;;;5069583;28;21050;-68
2022/08/10 00:18:29;;;;;;;5.13;1.88;;;;;;;;;;5068266;28;20314;-68
2022/08/10 00:20:54;;;;;;;3.83;1.90;;;;;;;;;;5066742;28;20110;-68
2022/08/10 00:23:20;;;;;;;5.43;1.98;;;;;;;;;;5067753;28;20032;-68
2022/08/10 00:25:45;;;;;;;6.97;2.80;;;;;;;;;;5067434;28;20070;-67
2022/08/10 00:28:10;;;;;;;7.27;1.87;;;;;;;;;;5067382;28;20289;-68
2022/08/10 00:30:35;;;;;;;5.88;2.30;;;;;;;;;;5067794;28;20278;-68
2022/08/10 00:33:01;;;;;;;4.43;1.93;;;;;;;;;;5066520;28;20012;-68
2022/08/10 00:35:26;;;;;;;6.70;2.28;;;;;;;;;;5067104;28;20274;-67
2022/08/10 00:37:51;;;;;;;7.10;1.88;;;;;;;;;;5067887;28;20070;-68
2022/08/10 00:40:16;;;;;;;4.17;1.90;;;;;;;;;;5067867;28;20032;-68
2022/08/10 00:42:41;;;;;;;3.90;1.87;;;;;;;;;;5067863;28;20028;-67
2022/08/10 00:45:07;;;;;;;3.42;2.00;;;;;;;;;;5068114;28;20916;-68
2022/08/10 00:47:32;;;;;;;4.63;1.75;;;;;;;;;;5067985;28;20384;-68
2022/08/10 00:49:57;;;;;;;3.80;1.90;;;;;;;;;;5068067;28;20066;-70
2022/08/10 00:52:24;;;;;;;5.18;2.38;;;;;;;;;;5067099;28;20278;-68
2022/08/10 00:54:49;;;;;;;5.90;2.08;;;;;;;;;;5065233;28;20040;-68
2022/08/10 00:57:14;;;;;;;3.85;1.95;;;;;;;;;;5068631;28;20059;-68
2022/08/10 00:59:40;;;;;;;7.68;2.30;;;;;;;;;;5068193;28;20368;-68
2022/08/10 01:02:05;;;;;;;8.50;2.40;;;;;;;;;;5066805;28;20020;-68
2022/08/10 01:04:30;;;;;;;3.03;1.98;;;;;;;;;;5066243;28;20016;-68
2022/08/10 01:07:12;;;;;;;3.92;2.50;;;;;;;;;;5062460;28;20032;-70
2022/08/10 01:09:42;;;;;;;4.15;2.22;;;;;;;;;;5066708;28;20026;-67
2022/08/10 01:12:07;;;;;;;;;;;;;;;;;;5065687;28;20043;-68
2022/08/10 01:14:52;;;;;;;7.40;1.92;;;;;;;;;;5060961;28;19916;-68
2022/08/10 01:17:20;;;;;;;3.83;2.25;;;;;;;;;;5068589;28;20112;-68
2022/08/10 01:19:45;;;;;;;6.13;1.95;;;;;;;;;;5062786;28;20028;-68
2022/08/10 01:22:16;;;;;;;5.63;2.00;;;;;;;;;;5067324;28;20029;-68
2022/08/10 01:25:00;;;;;;;7.10;2.08;;;;;;;;;;5064659;28;20231;-68
2022/08/10 01:27:43;;;;;;;6.97;2.30;;;;;;;;;;5067301;28;20020;-68
2022/08/10 01:30:10;;;;;;;5.50;2.20;;;;;;;;;;5065444;28;20095;-68
2022/08/10 01:32:39;;;;;;;2.88;1.98;;;;;;;;;;5070900;28;20024;-68
2022/08/10 01:35:14;;;;;;;3.17;2.03;;;;;;;;;;5068977;28;20119;-68
2022/08/10 01:37:44;;;;;;;4.88;2.47;;;;;;;;;;5069569;28;20412;-68
2022/08/10 01:40:12;;;;;;;7.38;2.03;;;;;;;;;;5071482;28;20017;-68
2022/08/10 01:42:39;;;;;;;5.80;2.40;;;;;;;;;;5071179;28;20101;-68
2022/08/10 01:45:05;;;;;;;6.32;2.45;;;;;;;;;;5069292;28;20027;-68
2022/08/10 01:50:24;;;;;;;9.73;2.60;;;;;;;;;;5071417;28;20024;-68
2022/08/10 01:52:51;;;;;;;4.88;2.00;;;;;;;;;;5070571;28;20063;-68
2022/08/10 01:55:16;;;;;;;3.70;2.05;;;;;;;;;;5071347;28;20113;-68
2022/08/10 01:57:43;;;;;;;5.72;2.65;;;;;;;;;;5070112;28;20469;-68
2022/08/10 02:00:08;;;;;;;7.03;2.40;;;;;;;;;;5069094;28;20074;-68
2022/08/10 02:02:35;;;;;;;7.70;2.97;;;;;;;;;;5068731;28;20424;-68
2022/08/10 02:05:00;;;;;;;5.03;2.28;;;;;;;;;;5069876;28;20365;-68
2022/08/10 02:07:27;;;;;;;3.22;2.30;;;;;;;;;;5069885;28;20042;-68
2022/08/10 02:09:55;;;;;;;4.63;1.98;;;;;;;;;;5067738;28;20516;-68
2022/08/10 02:12:27;;;;;;;5.82;2.60;;;;;;;;;;5069841;28;20029;-68
2022/08/10 02:14:54;;;;;;;7.18;2.78;;;;;;;;;;5069752;28;20066;-68
2022/08/10 02:17:21;;;;;;;5.13;2.25;;;;;;;;;;5070215;28;20402;-68
2022/08/10 02:19:47;;;;;;;3.63;2.40;;;;;;;;;;5069814;28;20476;-68
2022/08/10 02:22:13;;;;;;;6.57;2.20;;;;;;;;;;5071269;28;20043;-68
2022/08/10 02:24:39;;;;;;;3.25;2.08;;;;;;;;;;5070074;28;20595;-68
2022/08/10 02:27:04;;;;;;;3.35;2.25;;;;;;;;;;5069649;28;20099;-68
2022/08/10 02:29:30;;;;;;;3.72;2.60;;;;;;;;;;5068023;28;20146;-68
2022/08/10 02:31:56;;;;;;;6.60;2.90;;;;;;;;;;5067856;28;20025;-68
2022/08/10 02:34:21;;;;;;;3.07;2.17;;;;;;;;;;5069920;28;20085;-68
2022/08/10 02:36:49;;;;;;;4.72;2.28;;;;;;;;;;5068391;28;20743;-68
2022/08/10 02:39:16;;;;;;;7.30;2.53;;;;;;;;;;5066991;28;20033;-68
2022/08/10 02:41:44;;;;;;;5.35;2.67;;;;;;;;;;5066176;28;20032;-68
2022/08/10 02:44:15;;;;;;;6.57;2.28;;;;;;;;;;5070148;28;20461;-68
2022/08/10 02:46:49;;;;;;;4.53;2.42;;;;;;;;;;5069902;28;20628;-68
2022/08/10 02:49:20;;;;;;;5.55;2.83;;;;;;;;;;5069572;28;20438;-68
2022/08/10 02:51:51;;;;;;;5.43;2.58;;;;;;;;;;5067844;28;20101;-68
2022/08/10 02:54:22;;;;;;;6.13;2.45;;;;;;;;;;5069739;28;20531;-68
2022/08/10 02:56:52;;;;;;;4.47;2.40;;;;;;;;;;5068733;28;20385;-68
2022/08/10 02:59:23;;;;;;;4.97;2.47;;;;;;;;;;5063274;28;20028;-68
2022/08/10 03:01:49;;;;;;;5.30;2.75;;;;;;;;;;5066926;28;20040;-68
2022/08/10 03:04:19;;;;;;;4.65;2.70;;;;;;;;;;5069899;28;20032;-68
2022/08/10 03:06:48;;;;;;;5.90;2.65;;;;;;;;;;5067927;28;20098;-68
2022/08/10 03:09:15;;;;;;;4.63;3.27;;;;;;;;;;5067237;28;20033;-68
2022/08/10 03:11:42;;;;;;;4.85;3.25;;;;;;;;;;5067035;28;20413;-68
2022/08/10 03:14:08;;;;;;;4.55;2.95;;;;;;;;;;5069592;28;20032;-68
2022/08/10 03:16:34;;;;;;;22.05;3.05;;;;;;;;;;5070527;28;20366;-69
2022/08/10 03:19:01;;;;;;;5.97;2.78;;;;;;;;;;5070184;28;20029;-69
2022/08/10 03:21:27;;;;;;;8.00;2.80;;;;;;;;;;5066794;28;20021;-69
2022/08/10 03:23:53;;;;;;;6.95;2.83;;;;;;;;;;5069570;28;20016;-69
2022/08/10 03:26:19;;;;;;;4.03;2.72;;;;;;;;;;5070371;28;20013;-69
2022/08/10 03:28:44;;;;;;;2.72;2.45;;;;;;;;;;5067888;28;20066;-68
2022/08/10 03:31:09;;;;;;;4.43;2.80;;;;;;;;;;5068645;28;20013;-68
2022/08/10 03:33:36;;;;;;;8.00;3.42;;;;;;;;;;5068891;28;20644;-68
2022/08/10 03:36:01;;;;;;;5.88;2.80;;;;;;;;;;5068409;28;20009;-68
2022/08/10 03:38:27;;;;;;;8.80;3.00;;;;;;;;;;5068113;28;20047;-68
2022/08/10 03:40:53;;;;;;;5.03;2.80;;;;;;;;;;5068305;28;20019;-68
2022/08/10 03:43:19;;;;;;;6.70;3.10;;;;;;;;;;5068697;28;20484;-68
2022/08/10 03:45:48;;;;;;;4.65;3.00;;;;;;;;;;5068186;28;20028;-68
2022/08/10 03:48:14;;;;;;;5.97;2.90;;;;;;;;;;5069547;28;20021;-68
2022/08/10 03:50:40;;;;;;;9.45;2.90;;;;;;;;;;5067668;28;20089;-68
2022/08/10 03:53:05;;;;;;;7.55;3.20;;;;;;;;;;5067963;28;20450;-68
2022/08/10 03:55:31;;;;;;;6.20;3.30;;;;;;;;;;5066336;28;20020;-68
2022/08/10 03:57:56;;;;;;;6.35;3.25;;;;;;;;;;5068010;28;20081;-68
2022/08/10 04:00:21;;;;;;;9.18;2.97;;;;;;;;;;5069445;28;20111;-69
2022/08/10 04:02:48;;;;;;;9.85;3.80;;;;;;;;;;5067173;28;20016;-68
2022/08/10 04:05:14;;;;;;;6.00;3.00;;;;;;;;;;5067296;28;20028;-68
2022/08/10 04:07:39;;;;;;;9.77;3.63;;;;;;;;;;5063766;28;20079;-68
2022/08/10 04:10:05;;;;;;;7.78;3.13;;;;;;;;;;5068522;28;20507;-68
2022/08/10 04:12:30;;;;;;;13.07;3.42;;;;;;;;;;5067471;28;20085;-68
2022/08/10 04:14:55;;;;;;;7.25;3.50;;;;;;;;;;5068991;28;20095;-68
2022/08/10 04:17:21;;;;;;;6.50;3.43;;;;;;;;;;5067236;28;20051;-67
2022/08/10 04:19:47;;;;;;;5.07;3.40;;;;;;;;;;5068500;28;20306;-67
2022/08/10 04:22:15;;;;;;;9.70;3.33;;;;;;;;;;5067314;28;20376;-68
2022/08/10 04:24:40;;;;;;;7.68;3.28;;;;;;;;;;5067092;28;20035;-68
2022/08/10 04:27:06;;;;;;;5.55;3.50;;;;;;;;;;5066930;28;20099;-68
2022/08/10 04:29:31;;;;;;;6.85;3.33;;;;;;;;;;5067988;28;20032;-67
2022/08/10 04:31:56;;;;;;;8.65;3.30;;;;;;;;;;5067229;28;20226;-67
2022/08/10 04:34:24;;;;;;;5.27;3.33;;;;;;;;;;5067664;28;20443;-67
2022/08/10 04:36:50;;;;;;;5.93;3.45;;;;;;;;;;5068162;28;20274;-67
2022/08/10 04:39:15;;;;;;;6.88;3.22;;;;;;;;;;5068082;28;20025;-67
2022/08/10 04:41:41;;;;;;;6.82;3.75;;;;;;;;;;5066276;28;20040;-68
2022/08/10 04:44:06;;;;;;;9.38;3.60;;;;;;;;;;5067611;28;20036;-67
2022/08/10 04:46:31;;;;;;;6.73;3.40;;;;;;;;;;5068146;28;20055;-68
2022/08/10 04:48:56;;;;;;;7.25;3.05;;;;;;;;;;5059823;28;20780;-68
2022/08/10 04:51:22;;;;;;;10.33;3.30;;;;;;;;;;5067923;28;20508;-67
2022/08/10 04:53:48;;;;;;;12.73;3.80;;;;;;;;;;5066914;28;20286;-67
2022/08/10 04:56:13;;;;;;;6.80;3.15;;;;;;;;;;5066480;28;20294;-67
2022/08/10 04:58:38;;;;;;;7.70;2.83;;;;;;;;;;5069419;28;20783;-67
2022/08/10 05:01:03;;;;;;;4.93;3.00;;;;;;;;;;5083661;22;20314;-66
2022/08/10 05:03:29;;;;;;;6.60;2.83;;;;;;;;;;5067480;28;20332;-66
2022/08/10 05:05:54;;;;;;;9.15;3.38;;;;;;;;;;5061975;28;20271;-65
2022/08/10 05:08:19;;;;;;;8.23;3.55;;;;;;;;;;5068506;28;20036;-66
2022/08/10 05:10:44;;;;;;;7.80;3.77;;;;;;;;;;5056979;28;20052;-65
2022/08/10 05:13:09;;;;;;;5.47;3.67;;;;;;;;;;5050175;28;20276;-67
2022/08/10 05:15:35;;;;;;;8.70;3.55;;;;;;;;;;5050282;28;20267;-66
2022/08/10 05:18:00;;;;;;;4.68;3.42;;;;;;;;;;5046637;28;20021;-66
2022/08/10 05:20:25;;;;;;;5.82;3.22;;;;;;;;;;5050704;28;20477;-66
2022/08/10 05:22:50;;;;;;;15.35;3.33;;;;;;;;;;5041696;28;20053;-66
2022/08/10 05:25:17;;;;;;;7.60;3.70;;;;;;;;;;5047830;28;20056;-66
2022/08/10 05:27:42;;;;;;;13.38;3.13;;;;;;;;;;5044693;28;20279;-66
2022/08/10 05:30:10;;;;;;;5.90;3.20;;;;;;;;;;5047829;28;20058;-66
2022/08/10 05:32:35;;;;;;;7.82;3.60;;;;;;;;;;5046872;28;20021;-66
2022/08/10 05:35:00;;;;;;;8.55;3.58;;;;;;;;;;5041240;28;20382;-66
2022/08/10 05:37:27;;;;;;;8.93;3.42;;;;;;;;;;5049388;28;20040;-65
2022/08/10 05:39:53;;;;;;;12.80;3.60;;;;;;;;;;5047972;28;20025;-65
2022/08/10 05:42:20;;;;;;;6.20;3.90;;;;;;;;;;5043248;28;20090;-65
2022/08/10 05:44:45;;;;;;;6.55;3.55;;;;;;;;;;5045236;28;20028;-66
2022/08/10 05:47:11;;;;;;;12.02;3.83;;;;;;;;;;5048264;28;20025;-66
2022/08/10 05:49:36;;;;;;;10.10;3.53;;;;;;;;;;5044476;28;20071;-66
2022/08/10 05:52:01;;;;;;;19.45;4.35;;;;;;;;;;5045126;28;20270;-65
2022/08/10 05:54:27;;;;;;;6.63;3.60;;;;;;;;;;5048870;28;20048;-65
2022/08/10 05:56:52;;;;;;;10.07;3.53;;;;;;;;;;5046538;28;20109;-65
2022/08/10 05:59:18;;;;;;;10.40;4.68;;;;;;;;;;5047813;28;20024;-65
2022/08/10 06:01:46;;;;;;;10.68;3.97;;;;;;;;;;5046920;28;20422;-65
2022/08/10 06:04:14;;;;;;;11.10;5.25;;;;;;;;;;5049902;28;20037;-67
2022/08/10 06:06:41;;;;;;;12.00;4.45;;;;;;;;;;5050625;28;20021;-66
2022/08/10 06:09:06;;;;;;;16.13;4.30;;;;;;;;;;5046709;28;20061;-66
2022/08/10 06:11:32;;;;;;;11.10;3.63;;;;;;;;;;5050829;28;20053;-65
2022/08/10 06:16:42;;;;;;;8.50;3.78;;;;;;;;;;5048086;28;20123;-66
2022/08/10 06:19:08;;;;;;;8.23;3.55;;;;;;;;;;5048709;28;20021;-66
2022/08/10 06:21:35;;;;;;;9.40;3.25;;;;;;;;;;5049476;28;20029;-66
2022/08/10 06:24:00;;;;;;;10.20;3.28;;;;;;;;;;5048478;28;20055;-67
2022/08/10 06:26:26;;;;;;;15.20;3.42;;;;;;;;;;5045932;28;20068;-66
2022/08/10 06:28:52;;;;;;;9.73;2.97;;;;;;;;;;5045867;28;20492;-68
2022/08/10 06:31:18;;;;;;;8.80;3.55;;;;;;;;;;5045325;28;20460;-66
2022/08/10 06:33:44;;;;;;;4.82;2.85;;;;;;;;;;5049368;28;20132;-64
2022/08/10 06:36:10;;;;;;;7.68;2.53;;;;;;;;;;5045603;28;20028;-66
2022/08/10 06:38:36;;;;;;;5.30;3.03;;;;;;;;;;5048181;28;20033;-65
2022/08/10 06:41:05;;;;;;;7.65;3.25;;;;;;;;;;5048383;28;20032;-66
2022/08/10 06:43:32;;;;;;;8.48;2.85;;;;;;;;;;5047502;28;20078;-65
2022/08/10 06:46:01;;;;;;;7.03;3.08;;;;;;;;;;5046066;28;20032;-65
2022/08/10 06:48:56;;;;;;;8.35;3.22;;;;;;;;;;5047705;28;20104;-67
2022/08/10 06:51:23;;;;;;;10.05;3.20;;;;;;;;;;5026322;28;20539;-65
2022/08/10 06:53:51;;;;;;;6.93;3.00;;;;;;;;;;5046883;28;20028;-66
2022/08/10 06:56:18;;;;;;;11.48;3.80;;;;;;;;;;5046394;28;20112;-66
2022/08/10 06:58:55;;;;;;;14.75;2.50;;;;;;;;;;5046461;28;20021;-65
2022/08/10 07:01:22;;;;;;;12.45;2.95;;;;;;;;;;5044836;28;20472;-66
2022/08/10 07:03:51;;;;;;;10.68;3.28;;;;;;;;;;5042219;28;20020;-65
2022/08/10 07:06:16;;;;;;;12.63;3.40;;;;;;;;;;5045617;28;20020;-65
2022/08/10 07:08:42;;;;;;;9.25;3.20;;;;;;;;;;5044915;28;20032;-67
2022/08/10 07:11:08;;;;;;;5.68;2.75;;;;;;;;;;5044941;28;20066;-66
2022/08/10 07:13:35;;;;;;;10.15;3.20;;;;;;;;;;5043838;28;20035;-66
2022/08/10 07:16:00;;;;;;;7.10;2.90;;;;;;;;;;5040416;28;20032;-66
2022/08/10 07:18:26;;;;;;;9.88;2.92;;;;;;;;;;5041585;28;20031;-68
2022/08/10 07:20:52;;;;;;;7.38;3.10;;;;;;;;;;5048169;28;20083;-67
2022/08/10 07:23:18;;;;;;;6.47;2.72;;;;;;;;;;5047330;28;20109;-67
2022/08/10 07:25:44;;;;;;;7.07;2.78;;;;;;;;;;5046863;28;20100;-67
2022/08/10 07:28:10;;;;;;;9.75;2.42;;;;;;;;;;5047271;28;20108;-66
2022/08/10 07:30:37;;;;;;;7.95;2.83;;;;;;;;;;5044286;28;20104;-66
2022/08/10 07:33:03;;;;;;;8.27;2.55;;;;;;;;;;5036518;28;20075;-69
2022/08/10 07:35:30;;;;;;;4.78;3.35;;;;;;;;;;5044502;28;20346;-67
2022/08/10 07:37:56;;;;;;;4.32;2.40;;;;;;;;;;5047019;28;20123;-68
2022/08/10 07:40:22;;;;;;;10.15;3.05;;;;;;;;;;5049257;28;20063;-67
2022/08/10 07:42:49;;;;;;;4.28;2.33;;;;;;;;;;5046564;28;20043;-67
2022/08/10 07:45:15;;;;;;;7.72;2.58;;;;;;;;;;5044924;28;20056;-67
2022/08/10 07:47:41;;;;;;;11.03;2.73;;;;;;;;;;5046192;28;20485;-69
2022/08/10 07:50:09;;;;;;;13.30;2.60;;;;;;;;;;5046997;28;20500;-67
2022/08/10 07:52:36;;;;;;;9.60;3.10;;;;;;;;;;5046443;28;20075;-69
2022/08/10 07:55:02;;;;;;;2.80;2.30;;;;;;;;;;5048145;28;20104;-67
2022/08/10 07:57:29;;;;;;;3.78;2.22;;;;;;;;;;5045109;28;20361;-68
2022/08/10 07:59:58;;;;;;;7.65;2.67;;;;;;;;;;5046102;28;20029;-69
2022/08/10 08:02:29;;;;;;;8.00;2.83;;;;;;;;;;5045813;28;20029;-68
2022/08/10 08:04:57;;;;;;;8.57;2.80;;;;;;;;;;5044196;28;20023;-68
2022/08/10 08:07:22;;;;;;;4.95;2.13;;;;;;;;;;5043493;28;20077;-68
2022/08/10 08:09:48;;;;;;;8.33;2.70;;;;;;;;;;5046136;28;20029;-68
2022/08/10 08:12:14;;;;;;;6.53;2.42;;;;;;;;;;5047539;28;20017;-68
2022/08/10 08:14:41;;;;;;;6.28;2.53;;;;;;;;;;5044904;28;20607;-68
2022/08/10 08:17:07;;;;;;;5.25;2.25;;;;;;;;;;5041865;28;20593;-67
2022/08/10 08:19:32;;;;;;;9.25;2.55;;;;;;;;;;5043912;28;20111;-68
2022/08/10 08:21:58;;;;;;;4.65;2.10;;;;;;;;;;5048839;28;20025;-67
2022/08/10 08:24:24;;;;;;;8.07;2.40;;;;;;;;;;5048491;28;20025;-67
2022/08/10 08:26:50;;;;;;;8.88;2.45;;;;;;;;;;5043562;28;20021;-68
2022/08/10 08:29:15;;;;;;;6.30;2.03;;;;;;;;;;5040712;28;20029;-67
2022/08/10 08:31:41;;;;;;;5.82;2.72;;;;;;;;;;5047160;28;20082;-67
2022/08/10 08:34:07;;;;;;;8.75;2.17;;;;;;;;;;5046067;28;20075;-67
2022/08/10 08:36:34;;;;;;;9.00;2.33;;;;;;;;;;5045881;28;20056;-67
2022/08/10 08:38:59;;;;;;;16.05;2.47;;;;;;;;;;5044277;28;20021;-67
2022/08/10 08:41:27;;;;;;;7.50;2.93;;;;;;;;;;5049391;28;20032;-68
2022/08/10 08:43:57;;;;;;;5.45;3.25;;;;;;;;;;5052500;28;20252;-68
2022/08/10 08:46:34;;;;;;;4.65;2.50;;;;;;;;;;5048708;28;20507;-67
2022/08/10 08:49:08;;;;;;;5.68;2.40;;;;;;;;;;5049490;28;20021;-68
2022/08/10 08:51:36;;;;;;;8.60;2.28;;;;;;;;;;5047105;28;20029;-68
2022/08/10 08:54:16;;;;;;;4.03;2.38;;;;;;;;;;5048141;28;20385;-68
2022/08/10 08:56:41;;;;;;;5.45;2.70;;;;;;;;;;5050126;28;20585;-67
2022/08/10 08:59:36;;;;;;;15.73;2.50;;;;;;;;;;5046942;28;20036;-67
2022/08/10 09:02:16;;;;;;;13.20;2.22;;;;;;;;;;4954359;28;20060;-68
2022/08/10 09:05:00;;;;;;;5.88;2.45;;;;;;;;;;5049975;28;20017;-68
2022/08/10 09:07:45;;;;;;;5.53;2.20;;;;;;;;;;5046719;28;20028;-67
2022/08/10 09:10:25;;;;;;;10.50;2.17;;;;;;;;;;5052962;28;20029;-67
2022/08/10 09:12:50;;;;;;;4.82;2.50;;;;;;;;;;5050754;28;20027;-67
2022/08/10 09:15:18;;;;;;;8.98;2.55;;;;;;;;;;5051627;28;20016;-67
2022/08/10 09:18:02;;;;;;;10.57;2.20;;;;;;;;;;5045193;28;20025;-67
2022/08/10 09:20:46;;;;;;;8.93;2.75;;;;;;;;;;5047866;28;20447;-68
2022/08/10 09:23:23;;;;;;;4.65;2.13;;;;;;;;;;5048084;28;20599;-67
2022/08/10 09:26:06;;;;;;;6.55;1.98;;;;;;;;;;5043997;28;20428;-67
2022/08/10 09:28:36;;;;;;;6.93;2.75;;;;;;;;;;5047930;28;20029;-67
2022/08/10 09:31:01;;;;;;;4.97;2.42;;;;;;;;;;5050871;28;20021;-67
2022/08/10 09:33:41;;;;;;;4.10;2.10;;;;;;;;;;5051853;28;20029;-68
2022/08/10 09:36:26;;;;;;;10.38;2.45;;;;;;;;;;5051055;28;20021;-67
2022/08/10 09:38:55;;;;;;;3.08;1.83;;;;;;;;;;5049429;28;20504;-67
2022/08/10 09:41:33;;;;;;;3.33;2.05;;;;;;;;;;5045900;28;20035;-67
2022/08/10 09:44:10;;;;;;;8.40;2.20;;;;;;;;;;5048603;28;20070;-67
2022/08/10 09:46:57;;;;;;;7.55;2.08;;;;;;;;;;5051889;28;20706;-67
2022/08/10 09:49:28;;;;;;;2.35;1.27;;;;;;;;;;5042825;28;20476;-67
2022/08/10 09:52:16;;;;;;;9.75;2.15;;;;;;;;;;5047437;28;20021;-67
2022/08/10 09:54:41;;;;;;;6.90;2.33;;;;;;;;;;5047723;28;20032;-68
2022/08/10 09:57:06;;;;;;;4.13;2.37;;;;;;;;;;5049813;28;20058;-67
2022/08/10 09:59:43;;;;;;;4.25;1.83;;;;;;;;;;5051235;28;20037;-68
2022/08/10 10:02:11;;;;;;;6.13;3.03;;;;;;;;;;5047946;28;20269;-67
2022/08/10 10:04:41;;;;;;;6.82;2.83;;;;;;;;;;5045440;28;20029;-67
2022/08/10 10:07:06;;;;;;;;;;;;;;;;;;5050470;28;20035;-67
2022/08/10 10:09:41;;;;;;;11.32;1.88;;;;;;;;;;5051922;28;19913;-68
2022/08/10 10:12:13;;;;;;;3.20;1.63;;;;;;;;;;5051473;28;20027;-68
2022/08/10 10:17:52;;;;;;;5.22;1.83;;;;;;;;;;5051328;28;20031;-68
2022/08/10 10:20:31;;;;;;;3.08;1.80;;;;;;;;;;5047798;28;20017;-68
2022/08/10 10:22:59;;;;;;;7.22;2.05;;;;;;;;;;5050063;28;20029;-67
2022/08/10 10:25:34;;;;;;;7.18;2.00;;;;;;;;;;5051119;28;20045;-67
2022/08/10 10:28:04;;;;;;;10.38;2.70;;;;;;;;;;5050572;28;20032;-67
2022/08/10 10:30:33;;;;;;;9.65;2.13;;;;;;;;;;5049622;28;20013;-67
2022/08/10 10:33:06;;;;;;;8.23;2.35;;;;;;;;;;5048157;28;20021;-67
2022/08/10 10:35:31;;;;;;;11.18;2.22;;;;;;;;;;5050716;28;20392;-67
2022/08/10 10:37:57;;;;;;;7.97;2.30;;;;;;;;;;5047904;28;20025;-68
2022/08/10 10:40:24;;;;;;;7.40;2.38;;;;;;;;;;5049837;28;20106;-68
2022/08/10 10:42:55;;;;;;;7.80;2.33;;;;;;;;;;5048934;28;20025;-67
2022/08/10 10:45:27;;;;;;;5.90;1.90;;;;;;;;;;5045621;28;20025;-69
2022/08/10 10:48:11;;;;;;;5.85;2.10;;;;;;;;;;5044337;28;20055;-68
2022/08/10 10:50:36;;;;;;;8.85;1.60;;;;;;;;;;5049662;28;20052;-67
2022/08/10 10:53:08;;;;;;;3.50;1.90;;;;;;;;;;5050509;28;20324;-67
2022/08/10 10:55:42;;;;;;;5.72;2.28;;;;;;;;;;5047509;28;20017;-67
2022/08/10 10:58:22;;;;;;;8.55;1.92;;;;;;;;;;5045422;28;20416;-68
2022/08/10 11:01:06;;;;;;;10.02;2.47;;;;;;;;;;5066760;22;20066;-68
2022/08/10 11:03:43;;;;;;;4.97;1.75;;;;;;;;;;5069554;28;20020;-70
2022/08/10 11:06:32;;;;;;;5.97;2.17;;;;;;;;;;5065694;28;20017;-69
2022/08/10 11:09:01;;;;;;;5.55;2.28;;;;;;;;;;5064802;28;20025;-69
2022/08/10 11:11:31;;;;;;;7.80;2.17;;;;;;;;;;5054145;28;20028;-69
2022/08/10 11:14:00;;;;;;;6.32;1.90;;;;;;;;;;5044987;28;20021;-68
2022/08/10 11:16:28;;;;;;;8.97;2.27;;;;;;;;;;5047548;28;20024;-69
2022/08/10 11:18:56;;;;;;;3.70;2.25;;;;;;;;;;5043448;28;20020;-69
2022/08/10 11:21:39;;;;;;;5.18;2.33;;;;;;;;;;5047905;28;20457;-69
2022/08/10 11:24:08;;;;;;;5.60;2.58;;;;;;;;;;5043285;28;20519;-69
2022/08/10 11:26:42;;;;;;;4.05;2.20;;;;;;;;;;5042679;28;20084;-68
2022/08/10 11:29:16;;;;;;;9.02;2.25;;;;;;;;;;5038863;28;20024;-69
2022/08/10 11:31:45;;;;;;;3.67;2.00;;;;;;;;;;5042848;28;20401;-68
2022/08/10 11:34:10;;;;;;;11.00;2.47;;;;;;;;;;5045429;28;20501;-70
2022/08/10 11:36:48;;;;;;;2.05;1.70;;;;;;;;;;5047757;28;20086;-68
2022/08/10 11:39:17;;;;;;;3.17;1.98;;;;;;;;;;5042760;28;20528;-68
2022/08/10 11:41:43;;;;;;;6.47;2.40;;;;;;;;;;5046424;28;20032;-69
2022/08/10 11:44:16;;;;;;;4.60;2.07;;;;;;;;;;5042303;28;20024;-69
2022/08/10 11:46:49;;;;;;;4.97;2.15;;;;;;;;;;5044561;28;20107;-70
2022/08/10 11:49:32;;;;;;;5.93;2.13;;;;;;;;;;5037718;28;20052;-69
2022/08/10 11:52:23;;;;;;;12.23;2.05;;;;;;;;;;5043497;28;20476;-69
2022/08/10 11:54:51;;;;;;;4.78;2.15;;;;;;;;;;5040261;28;20508;-69
2022/08/10 11:57:17;;;;;;;6.82;2.00;;;;;;;;;;5039094;28;20025;-69
2022/08/10 11:59:55;;;;;;;6.53;1.83;;;;;;;;;;5038885;28;20099;-69
2022/08/10 12:02:21;;;;;;;5.50;1.90;;;;;;;;;;5043533;28;20211;-70
2022/08/10 12:04:51;;;;;;;5.50;2.25;;;;;;;;;;5047864;28;20017;-70
2022/08/10 12:07:17;;;;;;;3.08;1.88;;;;;;;;;;5041061;28;20030;-70
2022/08/10 12:09:43;;;;;;;7.68;1.90;;;;;;;;;;5045781;28;20483;-70
2022/08/10 12:12:09;;;;;;;8.40;1.75;;;;;;;;;;5046493;28;20024;-70
2022/08/10 12:14:40;;;;;;;9.25;2.35;;;;;;;;;;5044490;28;20091;-69
2022/08/10 12:17:12;;;;;;;10.77;2.15;;;;;;;;;;5042779;28;20033;-70
2022/08/10 12:19:41;;;;;;;6.65;2.30;;;;;;;;;;5038951;28;20061;-70
2022/08/10 12:22:11;;;;;;;3.03;1.83;;;;;;;;;;5039256;28;20071;-68
2022/08/10 12:24:41;;;;;;;2.85;2.20;;;;;;;;;;5045895;28;20116;-69
2022/08/10 12:27:06;;;;;;;;;;;;;;;;;;5039901;28;20033;-70
2022/08/10 12:29:37;;;;;;;7.75;2.10;;;;;;;;;;5045863;28;19959;-70
2022/08/10 12:32:10;;;;;;;3.65;1.50;;;;;;;;;;5044227;28;20013;-69
2022/08/10 12:34:54;;;;;;;3.17;1.92;;;;;;;;;;5044994;28;20017;-69
2022/08/10 12:37:37;;;;;;;3.90;1.92;;;;;;;;;;5043994;28;20024;-68
2022/08/10 12:40:06;;;;;;;3.40;2.20;;;;;;;;;;5046110;28;20083;-70
2022/08/10 12:42:43;;;;;;;3.28;1.77;;;;;;;;;;5043309;28;20025;-69
2022/08/10 12:45:14;;;;;;;5.40;1.77;;;;;;;;;;5049552;28;20021;-70
2022/08/10 12:47:43;;;;;;;7.40;2.22;;;;;;;;;;5039091;28;20034;-69
2022/08/10 12:50:08;;;;;;;5.05;2.30;;;;;;;;;;5040655;28;20029;-68
2022/08/10 12:52:56;;;;;;;4.32;2.15;;;;;;;;;;5042735;28;20092;-70
2022/08/10 12:55:23;;;;;;;4.70;2.55;;;;;;;;;;5032060;28;20017;-69
2022/08/10 12:57:49;;;;;;;6.82;2.63;;;;;;;;;;5041828;28;20021;-68
2022/08/10 13:00:15;;;;;;;9.20;2.33;;;;;;;;;;5042132;28;20076;-68
2022/08/10 13:02:43;;;;;;;5.70;2.15;;;;;;;;;;5041681;28;20424;-69
2022/08/10 13:05:12;;;;;;;3.60;2.00;;;;;;;;;;5037731;28;20075;-69
2022/08/10 13:07:42;;;;;;;3.33;1.83;;;;;;;;;;5032826;28;20502;-69
2022/08/10 13:10:09;;;;;;;4.70;2.30;;;;;;;;;;5046589;28;20440;-69
2022/08/10 13:12:36;;;;;;;7.30;2.10;;;;;;;;;;5044564;28;20096;-70
2022/08/10 13:15:07;;;;;;;2.95;2.05;;;;;;;;;;5043571;28;20022;-69
2022/08/10 13:17:33;;;;;;;7.70;2.25;;;;;;;;;;5038230;28;20044;-69
2022/08/10 13:20:02;;;;;;;7.03;2.80;;;;;;;;;;5046430;28;20029;-70
2022/08/10 13:22:29;;;;;;;7.55;2.22;;;;;;;;;;5047480;28;20477;-69
2022/08/10 13:24:57;;;;;;;5.40;2.20;;;;;;;;;;5039044;28;20039;-70
2022/08/10 13:27:25;;;;;;;4.03;2.10;;;;;;;;;;5041742;28;20517;-70
2022/08/10 13:29:54;;;;;;;3.55;2.42;;;;;;;;;;5046115;28;20029;-70
2022/08/10 13:32:21;;;;;;;3.90;2.17;;;;;;;;;;5047775;28;20092;-69
2022/08/10 13:34:48;;;;;;;3.75;1.70;;;;;;;;;;5028322;28;20112;-70
2022/08/10 13:37:14;;;;;;;12.55;2.30;;;;;;;;;;5054251;28;20103;-69
2022/08/10 13:39:43;;;;;;;7.88;2.35;;;;;;;;;;5049591;28;20060;-70
2022/08/10 13:42:11;;;;;;;4.03;2.13;;;;;;;;;;5046461;28;20063;-69
2022/08/10 13:44:40;;;;;;;6.05;1.75;;;;;;;;;;5049538;28;20116;-69
2022/08/10 13:47:06;;;;;;;4.03;2.25;;;;;;;;;;5048300;28;20075;-70
2022/08/10 13:49:33;;;;;;;7.07;2.25;;;;;;;;;;5044310;28;20165;-70
2022/08/10 13:51:59;;;;;;;7.10;2.47;;;;;;;;;;5046879;28;20129;-70
2022/08/10 13:54:34;;;;;;;9.70;2.28;;;;;;;;;;5048830;28;20540;-70
2022/08/10 13:57:00;;;;;;;6.70;2.53;;;;;;;;;;5045924;28;20025;-70
2022/08/10 13:59:25;;;;;;;5.70;2.13;;;;;;;;;;5046275;28;20114;-70
2022/08/10 14:01:51;;;;;;;4.07;2.08;;;;;;;;;;5042979;28;20480;-69
2022/08/10 14:04:17;;;;;;;5.00;2.53;;;;;;;;;;5047910;28;20055;-69
2022/08/10 14:06:48;;;;;;;12.07;2.75;;;;;;;;;;5047503;28;20449;-69
2022/08/10 14:09:16;;;;;;;4.57;2.38;;;;;;;;;;5035084;28;20764;-69
2022/08/10 14:11:42;;;;;;;5.57;2.00;;;;;;;;;;5043647;28;20552;-69
2022/08/10 14:14:12;;;;;;;10.82;2.90;;;;;;;;;;5042936;28;20024;-69
2022/08/10 14:16:42;;;;;;;3.90;2.10;;;;;;;;;;5047368;28;20036;-69
2022/08/10 14:19:10;;;;;;;8.55;2.80;;;;;;;;;;5038438;28;20025;-69
2022/08/10 14:21:39;;;;;;;4.65;2.30;;;;;;;;;;5046535;28;20036;-69
2022/08/10 14:24:05;;;;;;;6.18;2.65;;;;;;;;;;5045517;28;20037;-69
2022/08/10 14:26:30;;;;;;;4.03;2.75;;;;;;;;;;5043796;28;20048;-69
2022/08/10 14:29:00;;;;;;;5.40;2.30;;;;;;;;;;5045808;28;20021;-69
2022/08/10 14:31:28;;;;;;;6.53;2.30;;;;;;;;;;5042455;28;20047;-69
2022/08/10 14:33:55;;;;;;;4.43;2.00;;;;;;;;;;5042428;28;20025;-69
2022/08/10 14:36:28;;;;;;;6.75;2.40;;;;;;;;;;5046500;28;20470;-69
2022/08/10 14:38:54;;;;;;;4.15;2.50;;;;;;;;;;5044405;28;20032;-70
2022/08/10 14:41:26;;;;;;;6.22;2.45;;;;;;;;;;5044575;28;20103;-70
2022/08/10 14:43:54;;;;;;;7.53;2.35;;;;;;;;;;5046602;28;20025;-69
2022/08/10 14:46:20;;;;;;;3.63;2.42;;;;;;;;;;5045290;28;20024;-70
2022/08/10 14:48:46;;;;;;;3.28;2.15;;;;;;;;;;5041342;28;21290;-69
2022/08/10 14:51:14;;;;;;;4.35;2.88;;;;;;;;;;5045884;28;20104;-70
2022/08/10 14:53:40;;;;;;;3.10;1.92;;;;;;;;;;5044540;28;20009;-69
2022/08/10 14:56:07;;;;;;;4.90;2.40;;;;;;;;;;5048161;28;20033;-69
2022/08/10 14:58:34;;;;;;;4.43;2.38;;;;;;;;;;5045198;28;20028;-69
2022/08/10 15:00:59;;;;;;;9.23;2.88;;;;;;;;;;5046332;28;20511;-70